sensor_id;sensor_type;location;lat;lon;timestamp;P1;durP1;ratioP1;P2;durP2;ratioP2
52982;SDS011;48698;45.736;13.926;2022-09-03T00:03:58;5.22;;;1.92;;
52982;SDS011;48698;45.736;13.926;2022-09-03T00:09:29;4.70;;;1.85;;
52982;SDS011;48698;45.736;13.926;2022-09-03T00:20:02;3.15;;;1.77;;
52982;SDS011;48698;45.736;13.926;2022-09-03T00:25:14;4.25;;;1.90;;
52982;SDS011;48698;45.736;13.926;2022-09-03T00:30:26;2.95;;;1.85;;
52982;SDS011;48698;45.736;13.926;2022-09-03T00:35:34;3.10;;;1.63;;
52982;SDS011;48698;45.736;13.926;2022-09-03T00:51:58;4.35;;;1.73;;
52982;SDS011;48698;45.736;13.926;2022-09-03T01:13:32;3.50;;;1.60;;
52982;SDS011;48698;45.736;13.926;2022-09-03T01:19:04;2.17;;;1.70;;
52982;SDS011;48698;45.736;13.926;2022-09-03T01:24:26;4.38;;;1.98;;
52982;SDS011;48698;45.736;13.926;2022-09-03T01:29:46;4.18;;;1.52;;
52982;SDS011;48698;45.736;13.926;2022-09-03T01:40:21;2.85;;;1.70;;
52982;SDS011;48698;45.736;13.926;2022-09-03T01:51:07;2.33;;;1.98;;
52982;SDS011;48698;45.736;13.926;2022-09-03T02:01:56;3.85;;;1.80;;
52982;SDS011;48698;45.736;13.926;2022-09-03T02:07:05;2.47;;;1.98;;
52982;SDS011;48698;45.736;13.926;2022-09-03T02:12:10;2.53;;;1.85;;
52982;SDS011;48698;45.736;13.926;2022-09-03T02:17:18;3.55;;;1.90;;
52982;SDS011;48698;45.736;13.926;2022-09-03T02:22:22;4.47;;;2.03;;
52982;SDS011;48698;45.736;13.926;2022-09-03T02:27:26;2.85;;;2.00;;
52982;SDS011;48698;45.736;13.926;2022-09-03T02:32:29;4.10;;;1.90;;
52982;SDS011;48698;45.736;13.926;2022-09-03T02:37:34;3.60;;;2.00;;
52982;SDS011;48698;45.736;13.926;2022-09-03T02:42:37;4.28;;;2.30;;
52982;SDS011;48698;45.736;13.926;2022-09-03T02:47:41;2.63;;;1.95;;
52982;SDS011;48698;45.736;13.926;2022-09-03T02:52:47;3.78;;;2.50;;
52982;SDS011;48698;45.736;13.926;2022-09-03T02:57:51;3.13;;;2.00;;
52982;SDS011;48698;45.736;13.926;2022-09-03T03:02:55;3.20;;;1.90;;
52982;SDS011;48698;45.736;13.926;2022-09-03T03:07:58;1.92;;;1.73;;
52982;SDS011;48698;45.736;13.926;2022-09-03T03:13:03;2.30;;;1.90;;
52982;SDS011;48698;45.736;13.926;2022-09-03T03:18:06;3.67;;;1.92;;
52982;SDS011;48698;45.736;13.926;2022-09-03T03:23:14;5.80;;;2.30;;
52982;SDS011;48698;45.736;13.926;2022-09-03T03:28:17;2.72;;;2.03;;
52982;SDS011;48698;45.736;13.926;2022-09-03T03:33:23;2.72;;;1.92;;
52982;SDS011;48698;45.736;13.926;2022-09-03T03:38:32;2.95;;;2.45;;
52982;SDS011;48698;45.736;13.926;2022-09-03T03:43:36;3.30;;;2.20;;
52982;SDS011;48698;45.736;13.926;2022-09-03T03:48:40;3.97;;;2.10;;
52982;SDS011;48698;45.736;13.926;2022-09-03T03:53:44;2.85;;;2.47;;
52982;SDS011;48698;45.736;13.926;2022-09-03T03:58:48;2.58;;;2.10;;
52982;SDS011;48698;45.736;13.926;2022-09-03T04:03:56;3.80;;;2.10;;
52982;SDS011;48698;45.736;13.926;2022-09-03T04:09:00;4.07;;;2.22;;
52982;SDS011;48698;45.736;13.926;2022-09-03T04:14:04;2.47;;;2.15;;
52982;SDS011;48698;45.736;13.926;2022-09-03T04:19:08;2.47;;;1.90;;
52982;SDS011;48698;45.736;13.926;2022-09-03T04:24:12;3.00;;;2.45;;
52982;SDS011;48698;45.736;13.926;2022-09-03T04:29:18;4.72;;;2.35;;
52982;SDS011;48698;45.736;13.926;2022-09-03T04:34:24;4.97;;;2.45;;
52982;SDS011;48698;45.736;13.926;2022-09-03T04:39:27;5.85;;;2.40;;
52982;SDS011;48698;45.736;13.926;2022-09-03T04:44:30;3.17;;;2.17;;
52982;SDS011;48698;45.736;13.926;2022-09-03T04:49:34;3.05;;;2.20;;
52982;SDS011;48698;45.736;13.926;2022-09-03T04:54:37;4.72;;;2.50;;
52982;SDS011;48698;45.736;13.926;2022-09-03T04:59:41;3.35;;;2.30;;
52982;SDS011;48698;45.736;13.926;2022-09-03T05:04:44;3.72;;;2.35;;
52982;SDS011;48698;45.736;13.926;2022-09-03T05:09:48;3.63;;;2.40;;
52982;SDS011;48698;45.736;13.926;2022-09-03T05:14:52;2.97;;;2.50;;
52982;SDS011;48698;45.736;13.926;2022-09-03T05:19:56;2.90;;;2.53;;
52982;SDS011;48698;45.736;13.926;2022-09-03T05:25:00;3.73;;;2.40;;
52982;SDS011;48698;45.736;13.926;2022-09-03T05:30:03;3.85;;;2.50;;
52982;SDS011;48698;45.736;13.926;2022-09-03T05:35:07;3.55;;;2.08;;
52982;SDS011;48698;45.736;13.926;2022-09-03T05:40:12;7.07;;;2.55;;
52982;SDS011;48698;45.736;13.926;2022-09-03T05:45:15;2.70;;;2.50;;
52982;SDS011;48698;45.736;13.926;2022-09-03T05:50:27;3.55;;;2.42;;
52982;SDS011;48698;45.736;13.926;2022-09-03T05:55:30;2.63;;;2.40;;
52982;SDS011;48698;45.736;13.926;2022-09-03T06:00:34;3.95;;;1.75;;
52982;SDS011;48698;45.736;13.926;2022-09-03T06:05:39;2.60;;;1.98;;
52982;SDS011;48698;45.736;13.926;2022-09-03T06:10:42;2.85;;;1.98;;
52982;SDS011;48698;45.736;13.926;2022-09-03T06:15:46;2.50;;;1.65;;
52982;SDS011;48698;45.736;13.926;2022-09-03T06:20:53;3.28;;;2.05;;
52982;SDS011;48698;45.736;13.926;2022-09-03T06:26:04;3.15;;;2.20;;
52982;SDS011;48698;45.736;13.926;2022-09-03T06:31:08;4.38;;;2.00;;
52982;SDS011;48698;45.736;13.926;2022-09-03T06:36:17;2.25;;;1.80;;
52982;SDS011;48698;45.736;13.926;2022-09-03T06:41:22;8.43;;;1.98;;
52982;SDS011;48698;45.736;13.926;2022-09-03T06:46:28;3.58;;;1.67;;
52982;SDS011;48698;45.736;13.926;2022-09-03T06:51:33;4.95;;;1.77;;
52982;SDS011;48698;45.736;13.926;2022-09-03T06:56:37;4.10;;;1.70;;
52982;SDS011;48698;45.736;13.926;2022-09-03T07:01:43;2.58;;;1.85;;
52982;SDS011;48698;45.736;13.926;2022-09-03T07:06:48;3.05;;;1.40;;
52982;SDS011;48698;45.736;13.926;2022-09-03T07:11:51;3.67;;;1.90;;
52982;SDS011;48698;45.736;13.926;2022-09-03T07:16:55;2.80;;;1.57;;
52982;SDS011;48698;45.736;13.926;2022-09-03T07:21:58;3.85;;;1.50;;
52982;SDS011;48698;45.736;13.926;2022-09-03T07:27:02;4.45;;;1.85;;
52982;SDS011;48698;45.736;13.926;2022-09-03T07:32:07;5.65;;;1.40;;
52982;SDS011;48698;45.736;13.926;2022-09-03T07:37:11;17.73;;;2.57;;
52982;SDS011;48698;45.736;13.926;2022-09-03T07:42:14;2.70;;;1.47;;
52982;SDS011;48698;45.736;13.926;2022-09-03T07:47:18;1.83;;;1.13;;
52982;SDS011;48698;45.736;13.926;2022-09-03T07:52:28;2.17;;;1.30;;
52982;SDS011;48698;45.736;13.926;2022-09-03T07:57:31;3.90;;;1.47;;
52982;SDS011;48698;45.736;13.926;2022-09-03T08:02:35;4.17;;;1.97;;
52982;SDS011;48698;45.736;13.926;2022-09-03T08:07:38;2.67;;;1.10;;
52982;SDS011;48698;45.736;13.926;2022-09-03T08:17:46;2.65;;;1.30;;
52982;SDS011;48698;45.736;13.926;2022-09-03T08:22:51;2.28;;;1.20;;
52982;SDS011;48698;45.736;13.926;2022-09-03T08:27:56;3.25;;;1.27;;
52982;SDS011;48698;45.736;13.926;2022-09-03T08:33:03;1.38;;;1.27;;
52982;SDS011;48698;45.736;13.926;2022-09-03T08:38:09;2.33;;;1.17;;
52982;SDS011;48698;45.736;13.926;2022-09-03T08:43:15;4.32;;;1.52;;
52982;SDS011;48698;45.736;13.926;2022-09-03T08:48:21;2.10;;;1.30;;
52982;SDS011;48698;45.736;13.926;2022-09-03T08:53:29;2.17;;;1.08;;
52982;SDS011;48698;45.736;13.926;2022-09-03T08:58:42;3.40;;;1.38;;
52982;SDS011;48698;45.736;13.926;2022-09-03T10:13:34;2.97;;;1.20;;
52982;SDS011;48698;45.736;13.926;2022-09-03T10:50:22;1.88;;;0.95;;
52982;SDS011;48698;45.736;13.926;2022-09-03T11:00:19;1.65;;;0.90;;
52982;SDS011;48698;45.736;13.926;2022-09-03T11:05:30;1.58;;;1.10;;
52982;SDS011;48698;45.736;13.926;2022-09-03T11:10:41;2.72;;;1.10;;
52982;SDS011;48698;45.736;13.926;2022-09-03T11:15:53;1.20;;;0.93;;
52982;SDS011;48698;45.736;13.926;2022-09-03T11:21:04;0.93;;;0.82;;
52982;SDS011;48698;45.736;13.926;2022-09-03T11:26:17;2.40;;;1.00;;
52982;SDS011;48698;45.736;13.926;2022-09-03T11:36:45;2.50;;;1.10;;
52982;SDS011;48698;45.736;13.926;2022-09-03T11:41:56;1.70;;;1.00;;
52982;SDS011;48698;45.736;13.926;2022-09-03T11:47:34;3.50;;;1.00;;
52982;SDS011;48698;45.736;13.926;2022-09-03T11:52:44;1.35;;;0.85;;
52982;SDS011;48698;45.736;13.926;2022-09-03T12:02:55;1.60;;;0.90;;
52982;SDS011;48698;45.736;13.926;2022-09-03T12:13:21;1.10;;;0.90;;
52982;SDS011;48698;45.736;13.926;2022-09-03T12:18:46;1.60;;;0.90;;
52982;SDS011;48698;45.736;13.926;2022-09-03T12:23:55;2.83;;;1.30;;
52982;SDS011;48698;45.736;13.926;2022-09-03T12:28:59;1.27;;;0.90;;
52982;SDS011;48698;45.736;13.926;2022-09-03T12:34:10;1.08;;;0.77;;
52982;SDS011;48698;45.736;13.926;2022-09-03T12:39:21;2.53;;;1.23;;
52982;SDS011;48698;45.736;13.926;2022-09-03T12:44:46;1.55;;;1.00;;
52982;SDS011;48698;45.736;13.926;2022-09-03T12:49:51;1.50;;;1.00;;
52982;SDS011;48698;45.736;13.926;2022-09-03T13:00:29;2.92;;;0.98;;
52982;SDS011;48698;45.736;13.926;2022-09-03T13:05:46;1.50;;;1.15;;
52982;SDS011;48698;45.736;13.926;2022-09-03T13:10:55;2.65;;;1.05;;
52982;SDS011;48698;45.736;13.926;2022-09-03T13:27:13;2.90;;;1.40;;
52982;SDS011;48698;45.736;13.926;2022-09-03T13:43:27;1.80;;;1.00;;
52982;SDS011;48698;45.736;13.926;2022-09-03T13:48:40;1.77;;;1.10;;
52982;SDS011;48698;45.736;13.926;2022-09-03T13:54:25;2.42;;;1.10;;
52982;SDS011;48698;45.736;13.926;2022-09-03T14:05:02;1.25;;;1.00;;
52982;SDS011;48698;45.736;13.926;2022-09-03T14:15:35;3.20;;;1.27;;
52982;SDS011;48698;45.736;13.926;2022-09-03T14:21:03;2.03;;;1.20;;
52982;SDS011;48698;45.736;13.926;2022-09-03T14:26:21;2.40;;;1.08;;
52982;SDS011;48698;45.736;13.926;2022-09-03T14:43:46;3.58;;;1.30;;
52982;SDS011;48698;45.736;13.926;2022-09-03T15:10:58;2.47;;;1.30;;
52982;SDS011;48698;45.736;13.926;2022-09-03T15:16:07;2.05;;;1.10;;
52982;SDS011;48698;45.736;13.926;2022-09-03T15:22:17;2.00;;;0.98;;
52982;SDS011;48698;45.736;13.926;2022-09-03T15:38:11;4.32;;;1.10;;
52982;SDS011;48698;45.736;13.926;2022-09-03T15:43:48;2.97;;;1.10;;
52982;SDS011;48698;45.736;13.926;2022-09-03T15:48:59;2.33;;;1.25;;
52982;SDS011;48698;45.736;13.926;2022-09-03T15:59:25;3.00;;;1.23;;
52982;SDS011;48698;45.736;13.926;2022-09-03T16:04:51;1.95;;;0.90;;
52982;SDS011;48698;45.736;13.926;2022-09-03T16:10:19;1.67;;;1.00;;
52982;SDS011;48698;45.736;13.926;2022-09-03T16:15:27;3.20;;;1.00;;
52982;SDS011;48698;45.736;13.926;2022-09-03T16:53:55;1.45;;;1.00;;
52982;SDS011;48698;45.736;13.926;2022-09-03T16:59:22;1.77;;;1.00;;
52982;SDS011;48698;45.736;13.926;2022-09-03T17:09:46;3.38;;;1.00;;
52982;SDS011;48698;45.736;13.926;2022-09-03T17:20:20;2.20;;;1.55;;
52982;SDS011;48698;45.736;13.926;2022-09-03T17:25:34;2.60;;;1.40;;
52982;SDS011;48698;45.736;13.926;2022-09-03T17:51:39;2.25;;;1.50;;
52982;SDS011;48698;45.736;13.926;2022-09-03T18:01:59;3.20;;;1.42;;
52982;SDS011;48698;45.736;13.926;2022-09-03T18:17:53;3.80;;;1.90;;
52982;SDS011;48698;45.736;13.926;2022-09-03T18:34:28;2.92;;;1.45;;
52982;SDS011;48698;45.736;13.926;2022-09-03T18:39:52;3.40;;;1.85;;
52982;SDS011;48698;45.736;13.926;2022-09-03T18:45:18;1.75;;;1.40;;
52982;SDS011;48698;45.736;13.926;2022-09-03T18:51:17;15.73;;;2.10;;
52982;SDS011;48698;45.736;13.926;2022-09-03T18:56:51;3.40;;;1.67;;
52982;SDS011;48698;45.736;13.926;2022-09-03T19:02:28;5.47;;;1.95;;
52982;SDS011;48698;45.736;13.926;2022-09-03T19:08:01;2.72;;;1.70;;
52982;SDS011;48698;45.736;13.926;2022-09-03T19:13:36;5.00;;;1.90;;
52982;SDS011;48698;45.736;13.926;2022-09-03T19:19:08;3.75;;;1.73;;
52982;SDS011;48698;45.736;13.926;2022-09-03T19:24:33;6.25;;;1.70;;
52982;SDS011;48698;45.736;13.926;2022-09-03T19:30:00;3.00;;;1.75;;
52982;SDS011;48698;45.736;13.926;2022-09-03T19:35:28;3.20;;;1.77;;
52982;SDS011;48698;45.736;13.926;2022-09-03T19:41:07;2.95;;;1.90;;
52982;SDS011;48698;45.736;13.926;2022-09-03T19:46:33;4.30;;;1.98;;
52982;SDS011;48698;45.736;13.926;2022-09-03T19:58:03;4.55;;;2.33;;
52982;SDS011;48698;45.736;13.926;2022-09-03T20:03:43;3.10;;;1.98;;
52982;SDS011;48698;45.736;13.926;2022-09-03T20:09:06;2.63;;;1.85;;
52982;SDS011;48698;45.736;13.926;2022-09-03T20:14:32;4.97;;;2.05;;
52982;SDS011;48698;45.736;13.926;2022-09-03T20:19:47;2.92;;;1.80;;
52982;SDS011;48698;45.736;13.926;2022-09-03T20:25:27;4.07;;;1.90;;
52982;SDS011;48698;45.736;13.926;2022-09-03T20:30:43;3.47;;;1.88;;
52982;SDS011;48698;45.736;13.926;2022-09-03T20:35:55;5.03;;;2.08;;
52982;SDS011;48698;45.736;13.926;2022-09-03T20:46:42;6.95;;;2.15;;
52982;SDS011;48698;45.736;13.926;2022-09-03T21:14:44;3.08;;;2.03;;
52982;SDS011;48698;45.736;13.926;2022-09-03T21:19:37;3.28;;;2.40;;
52982;SDS011;48698;45.736;13.926;2022-09-03T21:24:52;4.40;;;2.33;;
52982;SDS011;48698;45.736;13.926;2022-09-03T21:30:07;3.05;;;2.00;;
52982;SDS011;48698;45.736;13.926;2022-09-03T21:40:31;2.60;;;1.90;;
52982;SDS011;48698;45.736;13.926;2022-09-03T21:45:41;6.43;;;2.72;;
52982;SDS011;48698;45.736;13.926;2022-09-03T21:50:55;3.60;;;2.20;;
52982;SDS011;48698;45.736;13.926;2022-09-03T21:56:13;2.60;;;1.95;;
52982;SDS011;48698;45.736;13.926;2022-09-03T22:01:49;3.33;;;1.98;;
52982;SDS011;48698;45.736;13.926;2022-09-03T22:07:14;6.13;;;2.42;;
52982;SDS011;48698;45.736;13.926;2022-09-03T22:12:25;3.42;;;2.30;;
52982;SDS011;48698;45.736;13.926;2022-09-03T22:17:59;4.30;;;2.15;;
52982;SDS011;48698;45.736;13.926;2022-09-03T22:23:09;3.72;;;2.05;;
52982;SDS011;48698;45.736;13.926;2022-09-03T22:28:25;2.00;;;1.80;;
52982;SDS011;48698;45.736;13.926;2022-09-03T23:00:24;1.52;;;1.42;;
52982;SDS011;48698;45.736;13.926;2022-09-03T23:16:32;1.50;;;1.40;;
52982;SDS011;48698;45.736;13.926;2022-09-03T23:21:36;2.17;;;1.55;;
52982;SDS011;48698;45.736;13.926;2022-09-03T23:26:46;2.00;;;1.80;;
52982;SDS011;48698;45.736;13.926;2022-09-03T23:31:56;2.00;;;1.63;;
52982;SDS011;48698;45.736;13.926;2022-09-03T23:37:05;2.65;;;1.50;;
52982;SDS011;48698;45.736;13.926;2022-09-03T23:42:41;3.05;;;1.40;;
